sensor_id;sensor_type;location;lat;lon;timestamp;P1;durP1;ratioP1;P2;durP2;ratioP2
43098;SDS011;28715;51.988;6.020;2023-02-03T00:01:56;18.73;;;4.65;;
43098;SDS011;28715;51.988;6.020;2023-02-03T00:04:26;16.65;;;4.30;;
43098;SDS011;28715;51.988;6.020;2023-02-03T00:06:52;16.98;;;4.47;;
43098;SDS011;28715;51.988;6.020;2023-02-03T00:09:18;17.60;;;4.60;;
43098;SDS011;28715;51.988;6.020;2023-02-03T00:11:44;16.42;;;4.50;;
43098;SDS011;28715;51.988;6.020;2023-02-03T00:14:10;16.67;;;3.97;;
43098;SDS011;28715;51.988;6.020;2023-02-03T00:16:35;17.23;;;3.93;;
43098;SDS011;28715;51.988;6.020;2023-02-03T00:19:01;16.10;;;4.00;;
43098;SDS011;28715;51.988;6.020;2023-02-03T00:21:26;18.90;;;4.73;;
43098;SDS011;28715;51.988;6.020;2023-02-03T00:23:52;13.40;;;3.53;;
43098;SDS011;28715;51.988;6.020;2023-02-03T00:26:18;16.15;;;4.07;;
43098;SDS011;28715;51.988;6.020;2023-02-03T00:28:44;17.27;;;3.57;;
43098;SDS011;28715;51.988;6.020;2023-02-03T00:31:16;17.43;;;3.50;;
43098;SDS011;28715;51.988;6.020;2023-02-03T00:33:43;12.15;;;3.30;;
43098;SDS011;28715;51.988;6.020;2023-02-03T00:36:09;14.10;;;3.67;;
43098;SDS011;28715;51.988;6.020;2023-02-03T00:38:35;19.10;;;4.32;;
43098;SDS011;28715;51.988;6.020;2023-02-03T00:41:00;13.27;;;3.47;;
43098;SDS011;28715;51.988;6.020;2023-02-03T00:43:26;13.00;;;3.60;;
43098;SDS011;28715;51.988;6.020;2023-02-03T00:45:52;14.88;;;3.65;;
43098;SDS011;28715;51.988;6.020;2023-02-03T00:48:21;13.40;;;3.00;;
43098;SDS011;28715;51.988;6.020;2023-02-03T00:51:12;21.77;;;4.10;;
43098;SDS011;28715;51.988;6.020;2023-02-03T00:53:42;20.53;;;4.13;;
43098;SDS011;28715;51.988;6.020;2023-02-03T00:56:25;13.95;;;3.58;;
43098;SDS011;28715;51.988;6.020;2023-02-03T00:58:51;17.53;;;3.57;;
43098;SDS011;28715;51.988;6.020;2023-02-03T01:01:16;12.07;;;3.17;;
43098;SDS011;28715;51.988;6.020;2023-02-03T01:03:42;15.17;;;3.67;;
43098;SDS011;28715;51.988;6.020;2023-02-03T01:06:13;18.60;;;3.93;;
43098;SDS011;28715;51.988;6.020;2023-02-03T01:08:41;14.95;;;3.28;;
43098;SDS011;28715;51.988;6.020;2023-02-03T01:11:08;14.35;;;3.85;;
43098;SDS011;28715;51.988;6.020;2023-02-03T01:13:35;14.57;;;3.63;;
43098;SDS011;28715;51.988;6.020;2023-02-03T01:16:05;14.32;;;3.60;;
43098;SDS011;28715;51.988;6.020;2023-02-03T01:18:31;12.07;;;3.30;;
43098;SDS011;28715;51.988;6.020;2023-02-03T01:20:57;18.20;;;3.83;;
43098;SDS011;28715;51.988;6.020;2023-02-03T01:23:28;14.88;;;3.78;;
43098;SDS011;28715;51.988;6.020;2023-02-03T01:25:53;16.33;;;4.30;;
43098;SDS011;28715;51.988;6.020;2023-02-03T01:28:19;14.60;;;3.93;;
43098;SDS011;28715;51.988;6.020;2023-02-03T01:30:44;16.60;;;4.23;;
43098;SDS011;28715;51.988;6.020;2023-02-03T01:33:10;14.90;;;3.60;;
43098;SDS011;28715;51.988;6.020;2023-02-03T01:35:36;15.20;;;4.50;;
43098;SDS011;28715;51.988;6.020;2023-02-03T01:38:01;19.10;;;4.40;;
43098;SDS011;28715;51.988;6.020;2023-02-03T01:40:27;13.30;;;3.40;;
43098;SDS011;28715;51.988;6.020;2023-02-03T01:42:53;11.73;;;4.10;;
43098;SDS011;28715;51.988;6.020;2023-02-03T01:45:18;16.10;;;3.67;;
43098;SDS011;28715;51.988;6.020;2023-02-03T01:47:57;18.50;;;3.87;;
43098;SDS011;28715;51.988;6.020;2023-02-03T01:50:25;18.88;;;4.50;;
43098;SDS011;28715;51.988;6.020;2023-02-03T01:52:57;15.45;;;3.78;;
43098;SDS011;28715;51.988;6.020;2023-02-03T01:55:28;12.13;;;3.33;;
43098;SDS011;28715;51.988;6.020;2023-02-03T01:57:59;18.63;;;4.05;;
43098;SDS011;28715;51.988;6.020;2023-02-03T02:00:43;8.68;;;2.83;;
43098;SDS011;28715;51.988;6.020;2023-02-03T02:03:12;9.83;;;2.87;;
43098;SDS011;28715;51.988;6.020;2023-02-03T02:05:44;14.80;;;3.40;;
43098;SDS011;28715;51.988;6.020;2023-02-03T02:08:14;14.93;;;3.22;;
43098;SDS011;28715;51.988;6.020;2023-02-03T02:10:42;12.98;;;3.58;;
43098;SDS011;28715;51.988;6.020;2023-02-03T02:13:08;12.38;;;3.30;;
43098;SDS011;28715;51.988;6.020;2023-02-03T02:22:12;14.43;;;3.38;;
43098;SDS011;28715;51.988;6.020;2023-02-03T02:33:04;14.38;;;2.88;;
43098;SDS011;28715;51.988;6.020;2023-02-03T02:46:56;10.57;;;2.80;;
43098;SDS011;28715;51.988;6.020;2023-02-03T02:49:36;14.10;;;2.70;;
43098;SDS011;28715;51.988;6.020;2023-02-03T02:52:11;13.68;;;2.83;;
43098;SDS011;28715;51.988;6.020;2023-02-03T02:54:39;11.48;;;3.17;;
43098;SDS011;28715;51.988;6.020;2023-02-03T02:57:09;8.43;;;2.38;;
43098;SDS011;28715;51.988;6.020;2023-02-03T02:59:36;13.10;;;3.10;;
43098;SDS011;28715;51.988;6.020;2023-02-03T03:02:02;11.10;;;2.93;;
43098;SDS011;28715;51.988;6.020;2023-02-03T03:04:29;11.43;;;2.70;;
43098;SDS011;28715;51.988;6.020;2023-02-03T03:06:58;13.18;;;2.85;;
43098;SDS011;28715;51.988;6.020;2023-02-03T03:09:31;12.93;;;2.78;;
43098;SDS011;28715;51.988;6.020;2023-02-03T03:12:07;11.95;;;2.30;;
43098;SDS011;28715;51.988;6.020;2023-02-03T03:14:40;10.13;;;2.65;;
43098;SDS011;28715;51.988;6.020;2023-02-03T03:17:10;11.35;;;2.72;;
43098;SDS011;28715;51.988;6.020;2023-02-03T03:19:42;15.57;;;2.75;;
43098;SDS011;28715;51.988;6.020;2023-02-03T03:22:14;8.18;;;2.17;;
43098;SDS011;28715;51.988;6.020;2023-02-03T03:24:46;13.43;;;2.78;;
43098;SDS011;28715;51.988;6.020;2023-02-03T03:27:16;12.43;;;2.70;;
43098;SDS011;28715;51.988;6.020;2023-02-03T03:32:21;9.75;;;2.55;;
43098;SDS011;28715;51.988;6.020;2023-02-03T03:34:47;10.77;;;2.33;;
43098;SDS011;28715;51.988;6.020;2023-02-03T03:37:50;12.63;;;2.80;;
43098;SDS011;28715;51.988;6.020;2023-02-03T03:40:09;12.82;;;2.75;;
43098;SDS011;28715;51.988;6.020;2023-02-03T03:42:56;9.90;;;2.42;;
43098;SDS011;28715;51.988;6.020;2023-02-03T03:45:33;10.48;;;2.35;;
43098;SDS011;28715;51.988;6.020;2023-02-03T03:48:16;10.52;;;2.80;;
43098;SDS011;28715;51.988;6.020;2023-02-03T03:50:47;15.60;;;2.80;;
43098;SDS011;28715;51.988;6.020;2023-02-03T03:53:16;7.20;;;2.13;;
43098;SDS011;28715;51.988;6.020;2023-02-03T03:55:44;10.45;;;2.25;;
43098;SDS011;28715;51.988;6.020;2023-02-03T03:58:14;16.65;;;3.17;;
43098;SDS011;28715;51.988;6.020;2023-02-03T04:00:44;11.95;;;2.65;;
43098;SDS011;28715;51.988;6.020;2023-02-03T04:03:13;16.90;;;2.95;;
43098;SDS011;28715;51.988;6.020;2023-02-03T04:05:48;14.23;;;3.15;;
43098;SDS011;28715;51.988;6.020;2023-02-03T04:08:16;9.95;;;2.63;;
43098;SDS011;28715;51.988;6.020;2023-02-03T04:10:44;10.30;;;2.50;;
43098;SDS011;28715;51.988;6.020;2023-02-03T04:13:10;9.50;;;2.20;;
43098;SDS011;28715;51.988;6.020;2023-02-03T04:15:39;11.45;;;2.95;;
43098;SDS011;28715;51.988;6.020;2023-02-03T04:18:05;17.13;;;2.90;;
43098;SDS011;28715;51.988;6.020;2023-02-03T04:20:31;13.87;;;3.03;;
43098;SDS011;28715;51.988;6.020;2023-02-03T04:22:59;15.80;;;3.58;;
43098;SDS011;28715;51.988;6.020;2023-02-03T04:25:25;13.53;;;3.03;;
43098;SDS011;28715;51.988;6.020;2023-02-03T04:27:56;13.57;;;3.13;;
43098;SDS011;28715;51.988;6.020;2023-02-03T04:30:22;16.47;;;2.87;;
43098;SDS011;28715;51.988;6.020;2023-02-03T04:32:48;12.80;;;3.22;;
43098;SDS011;28715;51.988;6.020;2023-02-03T04:35:19;11.25;;;2.80;;
43098;SDS011;28715;51.988;6.020;2023-02-03T04:37:45;15.98;;;2.90;;
43098;SDS011;28715;51.988;6.020;2023-02-03T04:40:11;12.70;;;2.53;;
43098;SDS011;28715;51.988;6.020;2023-02-03T04:42:37;14.68;;;2.97;;
43098;SDS011;28715;51.988;6.020;2023-02-03T04:45:07;10.82;;;3.00;;
43098;SDS011;28715;51.988;6.020;2023-02-03T04:47:36;14.90;;;3.35;;
43098;SDS011;28715;51.988;6.020;2023-02-03T04:50:03;15.68;;;2.40;;
43098;SDS011;28715;51.988;6.020;2023-02-03T04:52:29;10.18;;;2.20;;
43098;SDS011;28715;51.988;6.020;2023-02-03T04:54:54;8.30;;;2.10;;
43098;SDS011;28715;51.988;6.020;2023-02-03T04:57:20;13.67;;;2.40;;
43098;SDS011;28715;51.988;6.020;2023-02-03T04:59:46;10.70;;;2.60;;
43098;SDS011;28715;51.988;6.020;2023-02-03T05:02:13;9.20;;;2.22;;
43098;SDS011;28715;51.988;6.020;2023-02-03T05:04:39;12.10;;;2.43;;
43098;SDS011;28715;51.988;6.020;2023-02-03T05:07:05;11.40;;;2.60;;
43098;SDS011;28715;51.988;6.020;2023-02-03T05:09:30;8.57;;;1.90;;
43098;SDS011;28715;51.988;6.020;2023-02-03T05:11:56;15.63;;;2.67;;
43098;SDS011;28715;51.988;6.020;2023-02-03T05:14:21;13.83;;;2.63;;
43098;SDS011;28715;51.988;6.020;2023-02-03T05:16:47;10.90;;;2.13;;
43098;SDS011;28715;51.988;6.020;2023-02-03T05:19:12;9.67;;;1.90;;
43098;SDS011;28715;51.988;6.020;2023-02-03T05:21:38;9.57;;;2.10;;
43098;SDS011;28715;51.988;6.020;2023-02-03T05:24:07;11.50;;;2.27;;
43098;SDS011;28715;51.988;6.020;2023-02-03T05:26:39;10.30;;;2.58;;
43098;SDS011;28715;51.988;6.020;2023-02-03T05:29:04;9.65;;;1.73;;
43098;SDS011;28715;51.988;6.020;2023-02-03T05:31:30;11.40;;;2.23;;
43098;SDS011;28715;51.988;6.020;2023-02-03T05:33:57;9.80;;;2.30;;
43098;SDS011;28715;51.988;6.020;2023-02-03T05:36:23;13.87;;;2.47;;
43098;SDS011;28715;51.988;6.020;2023-02-03T05:38:48;11.13;;;2.43;;
43098;SDS011;28715;51.988;6.020;2023-02-03T05:41:14;8.57;;;2.23;;
43098;SDS011;28715;51.988;6.020;2023-02-03T05:43:58;12.40;;;2.50;;
43098;SDS011;28715;51.988;6.020;2023-02-03T05:46:23;14.50;;;2.30;;
43098;SDS011;28715;51.988;6.020;2023-02-03T05:48:49;8.50;;;2.13;;
43098;SDS011;28715;51.988;6.020;2023-02-03T05:51:15;9.10;;;2.33;;
43098;SDS011;28715;51.988;6.020;2023-02-03T05:53:43;11.23;;;2.10;;
43098;SDS011;28715;51.988;6.020;2023-02-03T05:56:08;10.70;;;2.20;;
43098;SDS011;28715;51.988;6.020;2023-02-03T05:58:34;10.20;;;2.10;;
43098;SDS011;28715;51.988;6.020;2023-02-03T06:00:59;10.50;;;2.37;;
43098;SDS011;28715;51.988;6.020;2023-02-03T06:03:25;10.23;;;2.27;;
43098;SDS011;28715;51.988;6.020;2023-02-03T06:05:50;14.53;;;2.60;;
43098;SDS011;28715;51.988;6.020;2023-02-03T06:08:18;10.68;;;2.15;;
43098;SDS011;28715;51.988;6.020;2023-02-03T06:10:44;11.40;;;2.80;;
43098;SDS011;28715;51.988;6.020;2023-02-03T06:13:10;13.53;;;2.60;;
43098;SDS011;28715;51.988;6.020;2023-02-03T06:15:42;11.27;;;2.58;;
43098;SDS011;28715;51.988;6.020;2023-02-03T06:18:09;12.15;;;2.58;;
43098;SDS011;28715;51.988;6.020;2023-02-03T06:20:37;16.63;;;2.65;;
43098;SDS011;28715;51.988;6.020;2023-02-03T06:23:05;16.05;;;2.92;;
43098;SDS011;28715;51.988;6.020;2023-02-03T06:25:31;15.10;;;2.60;;
43098;SDS011;28715;51.988;6.020;2023-02-03T06:27:57;13.07;;;2.73;;
43098;SDS011;28715;51.988;6.020;2023-02-03T06:30:25;13.93;;;2.60;;
43098;SDS011;28715;51.988;6.020;2023-02-03T06:32:50;13.10;;;2.37;;
43098;SDS011;28715;51.988;6.020;2023-02-03T06:35:17;9.83;;;2.30;;
43098;SDS011;28715;51.988;6.020;2023-02-03T06:37:43;13.35;;;2.53;;
43098;SDS011;28715;51.988;6.020;2023-02-03T06:40:09;13.83;;;3.40;;
43098;SDS011;28715;51.988;6.020;2023-02-03T06:42:35;12.05;;;2.22;;
43098;SDS011;28715;51.988;6.020;2023-02-03T06:45:01;12.87;;;2.37;;
43098;SDS011;28715;51.988;6.020;2023-02-03T06:47:26;12.40;;;3.10;;
43098;SDS011;28715;51.988;6.020;2023-02-03T06:50:01;12.13;;;2.90;;
43098;SDS011;28715;51.988;6.020;2023-02-03T06:52:29;12.38;;;2.75;;
43098;SDS011;28715;51.988;6.020;2023-02-03T06:54:55;13.80;;;2.97;;
43098;SDS011;28715;51.988;6.020;2023-02-03T06:57:20;15.97;;;2.93;;
43098;SDS011;28715;51.988;6.020;2023-02-03T06:59:46;10.23;;;2.83;;
43098;SDS011;28715;51.988;6.020;2023-02-03T07:02:11;16.30;;;3.47;;
43098;SDS011;28715;51.988;6.020;2023-02-03T07:04:37;14.27;;;3.60;;
43098;SDS011;28715;51.988;6.020;2023-02-03T07:07:06;11.63;;;3.50;;
43098;SDS011;28715;51.988;6.020;2023-02-03T07:09:31;10.77;;;2.92;;
43098;SDS011;28715;51.988;6.020;2023-02-03T07:11:57;12.57;;;2.93;;
43098;SDS011;28715;51.988;6.020;2023-02-03T07:14:22;11.20;;;3.10;;
43098;SDS011;28715;51.988;6.020;2023-02-03T07:16:48;12.00;;;2.90;;
43098;SDS011;28715;51.988;6.020;2023-02-03T07:19:13;14.93;;;3.03;;
43098;SDS011;28715;51.988;6.020;2023-02-03T07:21:39;10.00;;;2.73;;
43098;SDS011;28715;51.988;6.020;2023-02-03T07:24:04;13.93;;;2.80;;
43098;SDS011;28715;51.988;6.020;2023-02-03T07:26:30;16.67;;;3.17;;
43098;SDS011;28715;51.988;6.020;2023-02-03T07:28:55;14.33;;;2.50;;
43098;SDS011;28715;51.988;6.020;2023-02-03T07:31:23;14.52;;;2.80;;
43098;SDS011;28715;51.988;6.020;2023-02-03T07:33:49;13.93;;;2.70;;
43098;SDS011;28715;51.988;6.020;2023-02-03T07:36:15;11.40;;;3.50;;
43098;SDS011;28715;51.988;6.020;2023-02-03T07:38:40;14.20;;;2.80;;
43098;SDS011;28715;51.988;6.020;2023-02-03T07:41:06;9.03;;;2.40;;
43098;SDS011;28715;51.988;6.020;2023-02-03T07:43:31;17.93;;;3.07;;
43098;SDS011;28715;51.988;6.020;2023-02-03T07:45:57;18.33;;;4.20;;
43098;SDS011;28715;51.988;6.020;2023-02-03T07:48:22;16.43;;;2.90;;
43098;SDS011;28715;51.988;6.020;2023-02-03T07:50:48;15.53;;;3.10;;
43098;SDS011;28715;51.988;6.020;2023-02-03T07:53:15;13.55;;;2.67;;
43098;SDS011;28715;51.988;6.020;2023-02-03T07:55:41;10.52;;;2.95;;
43098;SDS011;28715;51.988;6.020;2023-02-03T07:58:06;9.67;;;2.80;;
43098;SDS011;28715;51.988;6.020;2023-02-03T08:00:32;20.40;;;3.57;;
43098;SDS011;28715;51.988;6.020;2023-02-03T08:02:58;14.35;;;2.95;;
43098;SDS011;28715;51.988;6.020;2023-02-03T08:05:24;14.70;;;3.40;;
43098;SDS011;28715;51.988;6.020;2023-02-03T08:07:49;12.97;;;3.60;;
43098;SDS011;28715;51.988;6.020;2023-02-03T08:10:15;15.03;;;3.43;;
43098;SDS011;28715;51.988;6.020;2023-02-03T08:12:41;13.82;;;3.15;;
43098;SDS011;28715;51.988;6.020;2023-02-03T08:15:08;13.38;;;2.80;;
43098;SDS011;28715;51.988;6.020;2023-02-03T08:17:34;15.63;;;3.15;;
43098;SDS011;28715;51.988;6.020;2023-02-03T08:20:00;15.47;;;3.10;;
43098;SDS011;28715;51.988;6.020;2023-02-03T08:22:25;12.97;;;3.47;;
43098;SDS011;28715;51.988;6.020;2023-02-03T08:24:51;10.63;;;2.97;;
43098;SDS011;28715;51.988;6.020;2023-02-03T08:27:18;12.50;;;3.07;;
43098;SDS011;28715;51.988;6.020;2023-02-03T08:29:45;12.63;;;3.20;;
43098;SDS011;28715;51.988;6.020;2023-02-03T08:32:11;12.60;;;2.93;;
43098;SDS011;28715;51.988;6.020;2023-02-03T08:34:38;10.95;;;2.63;;
43098;SDS011;28715;51.988;6.020;2023-02-03T08:37:04;13.13;;;3.13;;
43098;SDS011;28715;51.988;6.020;2023-02-03T08:39:30;10.05;;;2.80;;
43098;SDS011;28715;51.988;6.020;2023-02-03T08:41:57;11.00;;;3.38;;
43098;SDS011;28715;51.988;6.020;2023-02-03T08:44:23;14.80;;;3.28;;
43098;SDS011;28715;51.988;6.020;2023-02-03T08:46:49;13.50;;;3.17;;
43098;SDS011;28715;51.988;6.020;2023-02-03T08:49:15;12.43;;;3.03;;
43098;SDS011;28715;51.988;6.020;2023-02-03T08:51:41;16.13;;;3.47;;
43098;SDS011;28715;51.988;6.020;2023-02-03T08:54:06;15.13;;;3.60;;
43098;SDS011;28715;51.988;6.020;2023-02-03T08:56:32;9.90;;;2.73;;
43098;SDS011;28715;51.988;6.020;2023-02-03T08:58:58;11.90;;;2.97;;
43098;SDS011;28715;51.988;6.020;2023-02-03T09:01:24;12.40;;;2.40;;
43098;SDS011;28715;51.988;6.020;2023-02-03T09:03:49;12.50;;;2.87;;
43098;SDS011;28715;51.988;6.020;2023-02-03T09:06:15;11.13;;;2.60;;
43098;SDS011;28715;51.988;6.020;2023-02-03T09:08:44;14.63;;;3.07;;
43098;SDS011;28715;51.988;6.020;2023-02-03T09:11:14;12.05;;;3.35;;
43098;SDS011;28715;51.988;6.020;2023-02-03T09:13:41;9.57;;;2.58;;
43098;SDS011;28715;51.988;6.020;2023-02-03T09:16:10;9.32;;;2.28;;
43098;SDS011;28715;51.988;6.020;2023-02-03T09:18:37;13.80;;;3.00;;
43098;SDS011;28715;51.988;6.020;2023-02-03T09:21:04;11.43;;;2.50;;
43098;SDS011;28715;51.988;6.020;2023-02-03T09:23:31;11.23;;;3.00;;
43098;SDS011;28715;51.988;6.020;2023-02-03T09:26:01;14.40;;;2.73;;
43098;SDS011;28715;51.988;6.020;2023-02-03T09:28:31;17.17;;;3.30;;
43098;SDS011;28715;51.988;6.020;2023-02-03T09:31:01;10.75;;;2.33;;
43098;SDS011;28715;51.988;6.020;2023-02-03T09:33:27;10.48;;;2.97;;
43098;SDS011;28715;51.988;6.020;2023-02-03T09:35:53;9.43;;;2.17;;
43098;SDS011;28715;51.988;6.020;2023-02-03T09:38:21;10.43;;;2.45;;
43098;SDS011;28715;51.988;6.020;2023-02-03T09:40:54;8.50;;;2.38;;
43098;SDS011;28715;51.988;6.020;2023-02-03T09:43:48;10.38;;;2.65;;
43098;SDS011;28715;51.988;6.020;2023-02-03T09:46:20;8.18;;;2.50;;
43098;SDS011;28715;51.988;6.020;2023-02-03T09:48:49;8.10;;;2.45;;
43098;SDS011;28715;51.988;6.020;2023-02-03T09:51:27;8.90;;;2.60;;
43098;SDS011;28715;51.988;6.020;2023-02-03T09:54:06;11.10;;;2.90;;
43098;SDS011;28715;51.988;6.020;2023-02-03T09:56:45;12.75;;;2.90;;
43098;SDS011;28715;51.988;6.020;2023-02-03T09:59:16;10.95;;;2.35;;
43098;SDS011;28715;51.988;6.020;2023-02-03T10:04:37;12.55;;;2.85;;
43098;SDS011;28715;51.988;6.020;2023-02-03T10:07:14;12.93;;;2.92;;
43098;SDS011;28715;51.988;6.020;2023-02-03T10:18:04;11.73;;;2.67;;
43098;SDS011;28715;51.988;6.020;2023-02-03T10:20:52;10.98;;;2.50;;
43098;SDS011;28715;51.988;6.020;2023-02-03T10:25:54;8.10;;;2.67;;
43098;SDS011;28715;51.988;6.020;2023-02-03T10:28:21;9.52;;;2.17;;
43098;SDS011;28715;51.988;6.020;2023-02-03T10:30:53;10.13;;;2.42;;
43098;SDS011;28715;51.988;6.020;2023-02-03T10:33:24;7.70;;;2.25;;
43098;SDS011;28715;51.988;6.020;2023-02-03T10:41:10;7.18;;;2.45;;
43098;SDS011;28715;51.988;6.020;2023-02-03T10:43:36;8.53;;;2.53;;
43098;SDS011;28715;51.988;6.020;2023-02-03T10:46:20;9.90;;;2.60;;
43098;SDS011;28715;51.988;6.020;2023-02-03T10:48:54;8.50;;;2.50;;
43098;SDS011;28715;51.988;6.020;2023-02-03T10:51:24;9.32;;;2.40;;
43098;SDS011;28715;51.988;6.020;2023-02-03T10:53:51;7.72;;;2.17;;
43098;SDS011;28715;51.988;6.020;2023-02-03T10:56:19;5.25;;;1.95;;
43098;SDS011;28715;51.988;6.020;2023-02-03T10:58:49;9.30;;;2.47;;
43098;SDS011;28715;51.988;6.020;2023-02-03T11:01:20;8.65;;;2.83;;
43098;SDS011;28715;51.988;6.020;2023-02-03T11:04:02;10.95;;;2.40;;
43098;SDS011;28715;51.988;6.020;2023-02-03T11:06:30;13.45;;;3.05;;
43098;SDS011;28715;51.988;6.020;2023-02-03T11:08:57;10.32;;;2.80;;
43098;SDS011;28715;51.988;6.020;2023-02-03T11:16:19;8.98;;;3.10;;
43098;SDS011;28715;51.988;6.020;2023-02-03T11:18:55;8.90;;;2.78;;
43098;SDS011;28715;51.988;6.020;2023-02-03T11:21:23;11.73;;;2.60;;
43098;SDS011;28715;51.988;6.020;2023-02-03T11:23:56;6.70;;;2.20;;
43098;SDS011;28715;51.988;6.020;2023-02-03T11:26:26;8.18;;;2.70;;
43098;SDS011;28715;51.988;6.020;2023-02-03T11:31:23;8.57;;;2.50;;
43098;SDS011;28715;51.988;6.020;2023-02-03T11:34:00;10.77;;;2.65;;
43098;SDS011;28715;51.988;6.020;2023-02-03T11:36:29;9.15;;;2.53;;
43098;SDS011;28715;51.988;6.020;2023-02-03T11:39:09;9.95;;;2.63;;
43098;SDS011;28715;51.988;6.020;2023-02-03T11:41:47;13.65;;;2.67;;
43098;SDS011;28715;51.988;6.020;2023-02-03T11:44:23;9.63;;;2.37;;
43098;SDS011;28715;51.988;6.020;2023-02-03T11:46:57;9.93;;;2.30;;
43098;SDS011;28715;51.988;6.020;2023-02-03T11:49:39;11.50;;;2.15;;
43098;SDS011;28715;51.988;6.020;2023-02-03T11:52:49;8.77;;;2.20;;
43098;SDS011;28715;51.988;6.020;2023-02-03T11:55:20;10.32;;;2.08;;
43098;SDS011;28715;51.988;6.020;2023-02-03T12:00:42;12.15;;;2.33;;
43098;SDS011;28715;51.988;6.020;2023-02-03T12:03:24;9.82;;;2.50;;
43098;SDS011;28715;51.988;6.020;2023-02-03T12:09:19;7.95;;;2.55;;
43098;SDS011;28715;51.988;6.020;2023-02-03T12:15:11;9.32;;;2.25;;
43098;SDS011;28715;51.988;6.020;2023-02-03T12:17:28;10.80;;;2.50;;
43098;SDS011;28715;51.988;6.020;2023-02-03T12:25:35;12.10;;;2.75;;
43098;SDS011;28715;51.988;6.020;2023-02-03T12:28:20;11.98;;;2.90;;
43098;SDS011;28715;51.988;6.020;2023-02-03T12:31:03;8.18;;;2.67;;
43098;SDS011;28715;51.988;6.020;2023-02-03T12:33:40;9.43;;;2.90;;
43098;SDS011;28715;51.988;6.020;2023-02-03T12:38:59;11.82;;;4.13;;
43098;SDS011;28715;51.988;6.020;2023-02-03T12:41:34;11.10;;;3.63;;
43098;SDS011;28715;51.988;6.020;2023-02-03T12:47:35;15.23;;;4.10;;
43098;SDS011;28715;51.988;6.020;2023-02-03T12:50:15;11.43;;;3.53;;
43098;SDS011;28715;51.988;6.020;2023-02-03T12:52:57;17.05;;;4.88;;
43098;SDS011;28715;51.988;6.020;2023-02-03T12:58:17;17.10;;;3.67;;
43098;SDS011;28715;51.988;6.020;2023-02-03T13:20:35;19.95;;;4.45;;
43098;SDS011;28715;51.988;6.020;2023-02-03T13:23:05;16.77;;;4.57;;
43098;SDS011;28715;51.988;6.020;2023-02-03T13:37:05;18.45;;;4.93;;
43098;SDS011;28715;51.988;6.020;2023-02-03T13:42:27;19.13;;;4.68;;
43098;SDS011;28715;51.988;6.020;2023-02-03T13:44:56;22.77;;;4.93;;
43098;SDS011;28715;51.988;6.020;2023-02-03T13:47:29;17.42;;;4.28;;
43098;SDS011;28715;51.988;6.020;2023-02-03T13:50:01;20.80;;;4.55;;
43098;SDS011;28715;51.988;6.020;2023-02-03T13:52:32;22.75;;;5.57;;
43098;SDS011;28715;51.988;6.020;2023-02-03T13:55:29;22.17;;;4.72;;
43098;SDS011;28715;51.988;6.020;2023-02-03T13:58:02;19.65;;;5.60;;
43098;SDS011;28715;51.988;6.020;2023-02-03T14:05:51;16.85;;;3.40;;
43098;SDS011;28715;51.988;6.020;2023-02-03T14:22:01;21.85;;;4.38;;
43098;SDS011;28715;51.988;6.020;2023-02-03T14:24:32;25.48;;;5.38;;
43098;SDS011;28715;51.988;6.020;2023-02-03T14:27:15;19.83;;;4.50;;
43098;SDS011;28715;51.988;6.020;2023-02-03T14:29:41;22.65;;;3.78;;
43098;SDS011;28715;51.988;6.020;2023-02-03T14:32:08;20.60;;;3.57;;
43098;SDS011;28715;51.988;6.020;2023-02-03T14:34:38;20.17;;;3.72;;
43098;SDS011;28715;51.988;6.020;2023-02-03T14:37:27;25.20;;;4.10;;
43098;SDS011;28715;51.988;6.020;2023-02-03T14:42:29;23.70;;;4.00;;
43098;SDS011;28715;51.988;6.020;2023-02-03T14:45:04;22.80;;;4.43;;
43098;SDS011;28715;51.988;6.020;2023-02-03T14:58:40;21.35;;;4.38;;
43098;SDS011;28715;51.988;6.020;2023-02-03T15:06:40;18.50;;;3.10;;
43098;SDS011;28715;51.988;6.020;2023-02-03T15:11:57;24.77;;;4.00;;
43098;SDS011;28715;51.988;6.020;2023-02-03T15:14:24;27.10;;;5.03;;
43098;SDS011;28715;51.988;6.020;2023-02-03T15:16:55;28.50;;;4.57;;
43098;SDS011;28715;51.988;6.020;2023-02-03T15:19:24;28.08;;;4.57;;
43098;SDS011;28715;51.988;6.020;2023-02-03T15:21:52;26.13;;;4.03;;
43098;SDS011;28715;51.988;6.020;2023-02-03T15:24:18;28.10;;;4.43;;
43098;SDS011;28715;51.988;6.020;2023-02-03T15:26:48;25.38;;;4.57;;
43098;SDS011;28715;51.988;6.020;2023-02-03T15:29:20;27.52;;;4.50;;
43098;SDS011;28715;51.988;6.020;2023-02-03T15:31:51;24.73;;;3.97;;
43098;SDS011;28715;51.988;6.020;2023-02-03T15:34:25;23.95;;;3.80;;
43098;SDS011;28715;51.988;6.020;2023-02-03T15:38:14;22.60;;;4.47;;
43098;SDS011;28715;51.988;6.020;2023-02-03T15:40:21;28.80;;;4.97;;
43098;SDS011;28715;51.988;6.020;2023-02-03T15:45:28;25.45;;;4.30;;
43098;SDS011;28715;51.988;6.020;2023-02-03T15:48:05;28.02;;;4.47;;
43098;SDS011;28715;51.988;6.020;2023-02-03T15:50:53;29.17;;;5.20;;
43098;SDS011;28715;51.988;6.020;2023-02-03T15:53:25;26.38;;;3.97;;
43098;SDS011;28715;51.988;6.020;2023-02-03T15:55:55;27.33;;;4.50;;
43098;SDS011;28715;51.988;6.020;2023-02-03T15:58:26;21.67;;;4.35;;
43098;SDS011;28715;51.988;6.020;2023-02-03T16:01:03;25.15;;;5.28;;
43098;SDS011;28715;51.988;6.020;2023-02-03T16:08:47;26.65;;;4.72;;
43098;SDS011;28715;51.988;6.020;2023-02-03T16:14:03;25.40;;;5.97;;
43098;SDS011;28715;51.988;6.020;2023-02-03T16:16:35;26.67;;;4.88;;
43098;SDS011;28715;51.988;6.020;2023-02-03T16:19:10;27.98;;;6.15;;
43098;SDS011;28715;51.988;6.020;2023-02-03T16:29:53;27.92;;;6.07;;
43098;SDS011;28715;51.988;6.020;2023-02-03T16:32:58;27.83;;;4.78;;
43098;SDS011;28715;51.988;6.020;2023-02-03T16:35:43;29.33;;;5.18;;
43098;SDS011;28715;51.988;6.020;2023-02-03T16:38:27;21.67;;;4.53;;
43098;SDS011;28715;51.988;6.020;2023-02-03T16:41:13;27.05;;;5.40;;
43098;SDS011;28715;51.988;6.020;2023-02-03T16:43:59;26.90;;;5.13;;
43098;SDS011;28715;51.988;6.020;2023-02-03T16:46:43;24.95;;;5.35;;
43098;SDS011;28715;51.988;6.020;2023-02-03T16:49:29;24.73;;;5.00;;
43098;SDS011;28715;51.988;6.020;2023-02-03T16:52:13;28.20;;;5.82;;
43098;SDS011;28715;51.988;6.020;2023-02-03T16:54:39;24.10;;;5.03;;
43098;SDS011;28715;51.988;6.020;2023-02-03T16:57:04;30.57;;;5.77;;
43098;SDS011;28715;51.988;6.020;2023-02-03T16:59:30;23.40;;;5.30;;
43098;SDS011;28715;51.988;6.020;2023-02-03T17:01:55;30.60;;;6.20;;
43098;SDS011;28715;51.988;6.020;2023-02-03T17:04:21;30.03;;;6.67;;
43098;SDS011;28715;51.988;6.020;2023-02-03T17:06:46;26.53;;;5.33;;
43098;SDS011;28715;51.988;6.020;2023-02-03T17:09:15;29.58;;;5.35;;
43098;SDS011;28715;51.988;6.020;2023-02-03T17:11:49;30.95;;;6.25;;
43098;SDS011;28715;51.988;6.020;2023-02-03T17:14:15;31.83;;;6.65;;
43098;SDS011;28715;51.988;6.020;2023-02-03T17:16:40;26.73;;;5.67;;
43098;SDS011;28715;51.988;6.020;2023-02-03T17:19:09;32.03;;;7.17;;
43098;SDS011;28715;51.988;6.020;2023-02-03T17:21:35;22.65;;;5.38;;
43098;SDS011;28715;51.988;6.020;2023-02-03T17:24:00;26.93;;;6.43;;
43098;SDS011;28715;51.988;6.020;2023-02-03T17:26:26;25.63;;;6.83;;
43098;SDS011;28715;51.988;6.020;2023-02-03T17:28:52;27.37;;;6.83;;
43098;SDS011;28715;51.988;6.020;2023-02-03T17:31:18;31.10;;;7.07;;
43098;SDS011;28715;51.988;6.020;2023-02-03T17:33:45;31.15;;;6.10;;
43098;SDS011;28715;51.988;6.020;2023-02-03T17:36:16;26.13;;;6.50;;
43098;SDS011;28715;51.988;6.020;2023-02-03T17:38:45;31.65;;;6.15;;
43098;SDS011;28715;51.988;6.020;2023-02-03T17:41:14;24.98;;;5.55;;
43098;SDS011;28715;51.988;6.020;2023-02-03T17:43:41;31.60;;;6.57;;
43098;SDS011;28715;51.988;6.020;2023-02-03T17:46:08;24.27;;;6.40;;